Time;durP1;ratioP1;P1;durP2;ratioP2;P2;SDS_P1;SDS_P2;PMS_P1;PMS_P2;Temp;Humidity;BMP_temperature;BMP_pressure;BME280_temperature;BME280_humidity;BME280_pressure;Samples;Min_cycle;Max_cycle;Signal;HPM_P1;HPM_P2
2023/10/16 00:00:57;;;;;;;14.40;8.13;;;;;;;5.39;100.00;101185.00;4827624;29;20486;-88
2023/10/16 00:03:23;;;;;;;9.00;6.53;;;;;;;5.36;100.00;101185.19;4841104;29;20037;-88
2023/10/16 00:05:51;;;;;;;10.98;6.75;;;;;;;5.33;100.00;101184.47;4825155;29;20124;-88
2023/10/16 00:08:18;;;;;;;10.30;6.72;;;;;;;5.36;100.00;101183.41;4824939;29;20506;-88
2023/10/16 00:10:58;;;;;;;12.02;7.28;;;;;;;5.43;100.00;101176.84;4825826;29;20109;-89
2023/10/16 00:13:28;;;;;;;16.38;7.47;;;;;;;5.52;100.00;101182.50;4838941;29;20498;-88
2023/10/16 00:15:59;;;;;;;11.38;6.22;;;;;;;5.58;100.00;101184.75;4834885;29;20042;-89
2023/10/16 00:18:29;;;;;;;10.63;6.68;;;;;;;5.48;100.00;101176.56;4829495;29;20030;-88
2023/10/16 00:20:57;;;;;;;10.48;6.28;;;;;;;5.42;100.00;101179.56;4851690;29;20109;-88
2023/10/16 00:23:30;;;;;;;12.48;6.55;;;;;;;5.36;100.00;101174.69;4825398;29;20042;-88
2023/10/16 00:25:57;;;;;;;13.68;6.63;;;;;;;5.35;100.00;101176.50;4827296;29;20042;-89
2023/10/16 00:28:22;;;;;;;11.70;6.32;;;;;;;5.37;100.00;101168.53;4826947;29;20770;-88
2023/10/16 00:30:51;;;;;;;11.88;6.57;;;;;;;5.51;100.00;101176.41;4822159;29;20037;-88
2023/10/16 00:33:17;;;;;;;9.50;5.97;;;;;;;5.52;100.00;101167.59;4856585;29;20126;-88
2023/10/16 00:35:50;;;;;;;11.13;6.07;;;;;;;5.52;100.00;101159.75;4857608;29;20041;-93
2023/10/16 00:38:19;;;;;;;16.77;6.28;;;;;;;5.52;100.00;101159.75;4823379;29;20041;-92
2023/10/16 00:41:16;;;;;;;13.55;6.63;;;;;;;5.54;100.00;101167.50;4834229;29;20038;-87
2023/10/16 00:43:33;;;;;;;11.68;5.82;;;;;;;5.48;100.00;101160.03;4853554;29;20110;-88
2023/10/16 00:46:08;;;;;;;11.32;6.70;;;;;;;5.62;100.00;101160.03;4823716;29;20409;-89
2023/10/16 00:48:39;;;;;;;8.30;5.38;;;;;;;5.65;100.00;101149.34;4827989;29;20439;-89
2023/10/16 00:51:24;;;;;;;11.02;5.45;;;;;;;5.70;100.00;101159.56;4823030;29;20033;-89
2023/10/16 00:53:52;;;;;;;14.80;5.30;;;;;;;5.61;100.00;101152.22;4837845;29;20583;-89
2023/10/16 00:56:18;;;;;;;8.05;4.63;;;;;;;5.65;100.00;101156.38;4840591;29;20049;-88
2023/10/16 00:58:47;;;;;;;9.77;4.70;;;;;;;5.70;100.00;101152.50;4829511;29;20045;-88
2023/10/16 01:01:13;;;;;;;8.40;5.00;;;;;;;5.71;100.00;101146.34;4826810;29;20502;-88
2023/10/16 01:03:45;;;;;;;11.68;5.20;;;;;;;5.75;100.00;101146.97;4820354;29;20042;-92
2023/10/16 01:06:24;;;;;;;10.95;5.35;;;;;;;5.82;100.00;101155.31;4810909;29;20038;-92
2023/10/16 01:08:51;;;;;;;7.55;4.78;;;;;;;5.80;100.00;101147.53;4824465;29;20045;-89
2023/10/16 01:11:22;;;;;;;12.73;4.53;;;;;;;5.82;100.00;101152.69;4820480;29;20037;-89
2023/10/16 01:13:50;;;;;;;9.23;5.75;;;;;;;5.75;100.00;101141.72;4821570;29;20068;-88
2023/10/16 01:16:16;;;;;;;9.20;4.72;;;;;;;5.68;100.00;101133.41;4833052;29;20050;-88
2023/10/16 01:18:45;;;;;;;10.35;4.75;;;;;;;5.67;100.00;101134.34;4840271;29;20049;-89
2023/10/16 01:21:14;;;;;;;9.02;4.88;;;;;;;5.67;100.00;101129.09;4832899;29;20546;-89
2023/10/16 01:23:44;;;;;;;8.88;4.95;;;;;;;5.61;100.00;101126.84;4830473;29;20046;-92
2023/10/16 01:26:13;;;;;;;12.00;5.55;;;;;;;5.59;100.00;101126.09;4836140;29;20048;-92
2023/10/16 01:28:39;;;;;;;11.50;5.72;;;;;;;5.56;100.00;101131.53;4826597;29;20136;-92
2023/10/16 01:31:05;;;;;;;8.40;5.80;;;;;;;5.57;100.00;101123.56;4819918;29;20368;-92
2023/10/16 01:33:31;;;;;;;13.50;7.03;;;;;;;5.61;100.00;101124.22;4813253;29;20144;-89
2023/10/16 01:35:57;;;;;;;9.93;5.80;;;;;;;5.64;100.00;101117.97;4832634;29;20046;-88
2023/10/16 01:38:25;;;;;;;14.73;6.43;;;;;;;5.69;100.00;101121.13;4842779;29;20074;-92
2023/10/16 01:41:04;;;;;;;10.35;6.22;;;;;;;5.69;100.00;101121.13;4829278;29;20124;-92
2023/10/16 01:43:32;;;;;;;11.18;5.97;;;;;;;5.66;100.00;101110.81;4829292;29;20038;-88
2023/10/16 01:46:10;;;;;;;8.82;5.45;;;;;;;5.65;100.00;101114.41;4827205;29;20045;-88
2023/10/16 01:48:44;;;;;;;10.90;5.75;;;;;;;5.59;100.00;101100.72;4827552;29;20038;-93
2023/10/16 01:51:19;;;;;;;13.70;6.75;;;;;;;5.58;100.00;101104.28;4826076;29;20039;-92
2023/10/16 01:53:51;;;;;;;9.10;6.22;;;;;;;5.58;100.00;101104.28;4844320;29;20128;-88
2023/10/16 01:56:21;;;;;;;12.65;6.15;;;;;;;5.54;100.00;101102.78;4838103;29;20060;-88
2023/10/16 01:58:52;;;;;;;11.30;6.15;;;;;;;5.56;100.00;101106.16;4836862;29;20045;-87
2023/10/16 02:01:19;;;;;;;14.93;6.05;;;;;;;5.59;100.00;101094.63;4818023;29;20610;-89
2023/10/16 02:03:49;;;;;;;14.63;6.32;;;;;;;5.65;100.00;101096.03;4839831;29;20048;-89
2023/10/16 02:06:16;;;;;;;9.15;6.30;;;;;;;5.62;100.00;101094.47;4812213;29;20077;-88
2023/10/16 02:08:43;;;;;;;11.90;6.35;;;;;;;5.64;100.00;101095.19;4842461;29;20037;-89
2023/10/16 02:11:10;;;;;;;13.75;6.50;;;;;;;5.62;100.00;101089.22;4834810;29;20041;-88
2023/10/16 02:13:40;;;;;;;14.85;6.15;;;;;;;5.63;100.00;101093.50;4830756;29;20049;-89
2023/10/16 02:16:10;;;;;;;14.30;5.88;;;;;;;5.62;100.00;101083.97;4846041;29;20101;-89
2023/10/16 02:18:42;;;;;;;8.82;6.15;;;;;;;5.64;100.00;101089.13;4829227;29;20073;-89
2023/10/16 02:21:13;;;;;;;10.60;6.03;;;;;;;5.65;100.00;101086.41;4827720;29;20045;-89
2023/10/16 02:23:46;;;;;;;7.43;5.47;;;;;;;5.63;100.00;101074.31;4811073;29;20561;-89
2023/10/16 02:26:18;;;;;;;10.23;5.47;;;;;;;5.64;100.00;101076.00;4832698;29;20682;-89
2023/10/16 02:28:46;;;;;;;9.75;5.75;;;;;;;5.59;100.00;101082.38;4832386;29;20037;-89
2023/10/16 02:31:19;;;;;;;14.63;6.03;;;;;;;5.62;100.00;101078.72;4832210;29;20049;-89
2023/10/16 02:34:09;;;;;;;8.90;5.35;;;;;;;5.57;100.00;101084.22;4823382;29;20132;-92
2023/10/16 02:36:35;;;;;;;15.60;7.10;;;;;;;5.53;100.00;101076.66;4824254;29;20069;-93
2023/10/16 02:39:07;;;;;;;8.07;5.63;;;;;;;5.54;100.00;101081.81;4830574;29;20041;-93
2023/10/16 02:41:34;;;;;;;11.20;6.00;;;;;;;5.59;100.00;101086.75;4811922;29;20038;-92
2023/10/16 02:44:00;;;;;;;8.82;5.47;;;;;;;5.55;100.00;101083.50;4845174;29;20038;-88
2023/10/16 02:46:25;;;;;;;7.85;5.05;;;;;;;5.58;100.00;101085.94;4841922;29;20617;-88
2023/10/16 02:48:54;;;;;;;24.02;6.30;;;;;;;5.57;100.00;101081.59;4827422;29;20046;-89
2023/10/16 02:51:20;;;;;;;10.75;5.53;;;;;;;5.56;100.00;101082.56;4828495;29;20033;-89
2023/10/16 02:53:49;;;;;;;10.70;5.28;;;;;;;5.57;100.00;101086.03;4824649;29;20052;-88
2023/10/16 02:56:14;;;;;;;10.02;5.90;;;;;;;5.54;100.00;101079.19;4843243;29;20388;-89
2023/10/16 02:58:55;;;;;;;10.18;5.30;;;;;;;5.55;100.00;101080.03;4844393;29;20041;-93
2023/10/16 03:01:22;;;;;;;10.52;5.78;;;;;;;5.54;100.00;101079.19;4809576;29;20037;-93
2023/10/16 03:03:50;;;;;;;11.00;5.40;;;;;;;5.57;100.00;101078.16;4841112;29;20053;-89
2023/10/16 03:06:18;;;;;;;10.50;5.18;;;;;;;5.57;100.00;101075.53;4828283;29;20487;-89
2023/10/16 03:08:50;;;;;;;7.85;5.68;;;;;;;5.58;100.00;101070.19;4827639;29;20491;-89
2023/10/16 03:11:17;;;;;;;8.38;5.03;;;;;;;5.62;100.00;101065.63;4829200;29;20419;-89
2023/10/16 03:13:50;;;;;;;10.80;4.97;;;;;;;5.61;100.00;101058.66;4827421;29;20048;-94
2023/10/16 03:16:26;;;;;;;9.40;5.43;;;;;;;5.61;100.00;101063.91;4845627;29;20049;-93
2023/10/16 03:19:02;;;;;;;7.82;4.93;;;;;;;5.61;100.00;101061.28;4834980;29;20517;-88
2023/10/16 03:21:28;;;;;;;8.73;5.07;;;;;;;5.58;100.00;101059.72;4808636;29;20044;-89
2023/10/16 03:23:54;;;;;;;11.00;5.10;;;;;;;5.58;100.00;101057.09;4828611;29;20038;-88
2023/10/16 03:26:32;;;;;;;11.50;6.13;;;;;;;5.57;100.00;101062.44;4843199;29;20037;-89
2023/10/16 03:29:02;;;;;;;9.15;5.68;;;;;;;5.56;100.00;101056.34;4827536;29;20064;-88
2023/10/16 03:31:29;;;;;;;17.23;7.38;;;;;;;5.57;100.00;101063.25;4828813;29;20041;-89
2023/10/16 03:33:55;;;;;;;12.02;6.03;;;;;;;5.54;100.00;101055.56;4834956;29;20137;-89
2023/10/16 03:36:22;;;;;;;10.38;5.47;;;;;;;5.54;100.00;101054.75;4824465;29;20052;-88
2023/10/16 03:38:51;;;;;;;7.85;5.05;;;;;;;5.60;100.00;101051.75;4823474;29;20435;-88
2023/10/16 03:43:56;;;;;;;9.18;5.53;;;;;;;5.52;100.00;101041.75;4857284;29;20486;-89
2023/10/16 03:46:29;;;;;;;9.65;5.00;;;;;;;5.55;100.00;101046.78;4843430;29;20435;-88
2023/10/16 03:48:55;;;;;;;10.93;5.35;;;;;;;5.51;100.00;101044.47;4827114;29;20402;-89
2023/10/16 03:51:21;;;;;;;22.02;6.80;;;;;;;5.50;100.00;101040.13;4840440;29;20041;-89
2023/10/16 03:53:50;;;;;;;8.27;5.35;;;;;;;5.50;100.00;101042.75;4827774;29;20033;-88
2023/10/16 03:56:16;;;;;;;8.40;5.20;;;;;;;5.51;100.00;101032.16;4822008;29;20501;-88
2023/10/16 03:58:43;;;;;;;10.45;5.18;;;;;;;5.52;100.00;101033.03;4834744;29;20038;-88
2023/10/16 04:01:13;;;;;;;8.75;5.43;;;;;;;5.57;100.00;101034.41;4825322;29;20034;-89
2023/10/16 04:03:50;;;;;;;15.48;5.13;;;;;;;5.53;100.00;101029.44;4826736;29;20042;-88
2023/10/16 04:06:20;;;;;;;10.73;5.18;;;;;;;5.53;100.00;101034.69;4840574;29;20097;-89
2023/10/16 04:08:51;;;;;;;9.63;5.18;;;;;;;5.52;100.00;101031.25;4828854;29;20037;-92
2023/10/16 04:11:18;;;;;;;8.77;5.28;;;;;;;5.50;100.00;101033.13;4827628;29;20073;-92
2023/10/16 04:13:47;;;;;;;7.32;5.20;;;;;;;5.49;100.00;101033.22;4829967;29;20474;-89
2023/10/16 04:19:36;;;;;;;9.52;5.32;;;;;;;5.45;100.00;101019.44;4823359;29;20079;-89
2023/10/16 04:22:28;;;;;;;9.15;4.88;;;;;;;5.48;100.00;101019.25;4839584;29;20498;-87
2023/10/16 04:24:45;;;;;;;13.23;4.88;;;;;;;5.49;100.00;101012.25;4837667;29;20045;-88
2023/10/16 04:29:46;;;;;;;9.23;4.72;;;;;;;5.46;100.00;101016.72;4843887;29;20045;-92
2023/10/16 04:35:03;;;;;;;8.57;5.38;;;;;;;5.44;100.00;101012.53;4840835;29;20065;-93
2023/10/16 04:37:29;;;;;;;8.02;4.80;;;;;;;5.42;100.00;101010.00;4828921;29;20037;-92
2023/10/16 04:48:07;;;;;;;7.57;4.53;;;;;;;5.29;100.00;100999.44;4841836;29;20037;-89
2023/10/16 04:53:09;;;;;;;8.57;4.70;;;;;;;5.31;100.00;100999.34;4840123;29;20029;-88
2023/10/16 05:14:20;;;;;;;;;;;;;;;5.42;100.00;100980.31;4859202;29;20078;-88
2023/10/16 06:14:13;;;;;;;6.53;3.80;;;;;;;5.43;100.00;100908.63;4842040;29;20052;-92
2023/10/16 06:16:53;;;;;;;11.10;4.43;;;;;;;5.48;100.00;100903.88;4829139;29;20042;-92
2023/10/16 06:19:19;;;;;;;6.18;3.78;;;;;;;5.43;100.00;100906.00;4810596;29;20041;-89
2023/10/16 06:21:47;;;;;;;10.18;4.25;;;;;;;5.46;100.00;100909.22;4843988;29;20041;-88
2023/10/16 06:24:38;;;;;;;11.68;5.07;;;;;;;5.51;100.00;100906.31;4827938;29;20487;-89
2023/10/16 06:27:09;;;;;;;9.40;4.05;;;;;;;5.54;100.00;100910.53;4843191;29;20042;-88
2023/10/16 06:29:35;;;;;;;10.00;4.22;;;;;;;5.56;100.00;100906.00;4831875;29;20045;-88
2023/10/16 06:32:20;;;;;;;8.25;3.78;;;;;;;5.57;100.00;100899.84;4842594;29;20021;-89
2023/10/16 06:35:01;;;;;;;9.70;4.20;;;;;;;5.57;100.00;100903.28;4827198;29;20052;-88
2023/10/16 06:37:35;;;;;;;10.70;3.75;;;;;;;5.57;100.00;100902.47;4830566;29;20057;-89
2023/10/16 06:40:01;;;;;;;6.38;3.78;;;;;;;5.58;100.00;100894.50;4861045;29;20025;-92
2023/10/16 06:42:28;;;;;;;12.50;3.97;;;;;;;5.59;100.00;100893.53;4812784;29;20402;-93
2023/10/16 06:44:54;;;;;;;9.98;3.92;;;;;;;5.59;100.00;100901.41;4823504;29;20501;-88
2023/10/16 06:47:35;;;;;;;15.65;4.82;;;;;;;5.57;100.00;100903.28;4826357;29;20487;-89
2023/10/16 06:53:00;;;;;;;;;;;;;;;5.52;100.00;100907.16;4823831;29;20057;-89
2023/10/16 06:55:26;;;;;;;7.18;4.55;;;;;;;5.49;100.00;100905.59;4843894;29;19951;-88
2023/10/16 06:57:51;;;;;;;10.23;4.60;;;;;;;5.47;100.00;100907.47;4823024;29;20106;-89
2023/10/16 07:00:31;;;;;;;11.32;4.35;;;;;;;5.49;100.00;100896.88;4828350;29;20067;-93
2023/10/16 07:02:58;;;;;;;9.57;4.70;;;;;;;5.50;100.00;100894.16;4820316;29;20081;-92
2023/10/16 07:05:25;;;;;;;9.82;3.83;;;;;;;5.55;100.00;100888.59;4826995;29;20113;-89
2023/10/16 07:07:52;;;;;;;7.65;4.72;;;;;;;5.58;100.00;100888.41;4827894;29;20390;-89
2023/10/16 07:10:19;;;;;;;9.27;5.30;;;;;;;5.59;100.00;100883.06;4836753;29;20145;-90
2023/10/16 07:13:00;;;;;;;10.57;5.45;;;;;;;5.56;100.00;100895.50;4860120;29;20588;-89
2023/10/16 07:15:29;;;;;;;13.80;6.28;;;;;;;5.53;100.00;100896.56;4843679;29;20085;-89
2023/10/16 07:17:55;;;;;;;9.43;5.85;;;;;;;5.52;100.00;100896.66;4843336;29;20105;-88
2023/10/16 07:20:28;;;;;;;10.48;6.10;;;;;;;5.51;100.00;100895.00;4827638;29;20041;-89
2023/10/16 07:22:59;;;;;;;13.35;5.95;;;;;;;5.53;100.00;100893.94;4827467;29;20072;-89
2023/10/16 07:25:37;;;;;;;10.38;4.07;;;;;;;5.52;100.00;100896.66;4831110;29;20481;-89
2023/10/16 07:28:09;;;;;;;7.78;4.40;;;;;;;5.49;100.00;100891.63;4842044;29;20045;-89
2023/10/16 07:30:36;;;;;;;6.07;3.38;;;;;;;5.44;100.00;100884.91;4852097;29;20058;-89
2023/10/16 07:33:03;;;;;;;6.85;3.45;;;;;;;5.38;100.00;100893.19;4817255;29;20049;-89
2023/10/16 07:35:28;;;;;;;5.28;3.30;;;;;;;5.39;100.00;100887.00;4825980;29;20048;-89
2023/10/16 07:37:54;;;;;;;5.38;3.50;;;;;;;5.41;100.00;100890.34;4843374;29;20037;-90
2023/10/16 07:40:20;;;;;;;6.95;4.07;;;;;;;5.48;100.00;100890.78;4832580;29;20025;-88
2023/10/16 07:42:52;;;;;;;8.45;4.35;;;;;;;5.53;100.00;100886.09;4841072;29;20042;-89
2023/10/16 07:45:21;;;;;;;9.20;4.18;;;;;;;5.57;100.00;100878.88;4822140;29;20496;-89
2023/10/16 07:47:48;;;;;;;8.93;4.40;;;;;;;5.58;100.00;100889.25;4826205;29;20500;-89
2023/10/16 07:50:19;;;;;;;7.70;3.72;;;;;;;5.66;100.00;100880.03;4842808;29;20029;-89
2023/10/16 07:52:44;;;;;;;7.55;3.33;;;;;;;5.73;100.00;100875.22;4828639;29;20432;-89
2023/10/16 07:55:27;;;;;;;6.40;4.18;;;;;;;5.79;100.00;100878.28;4843077;29;20041;-89
2023/10/16 07:57:53;;;;;;;7.35;3.30;;;;;;;5.83;100.00;100877.13;4859687;29;20029;-89
2023/10/16 08:00:25;;;;;;;6.40;3.17;;;;;;;5.87;100.00;100872.53;4823837;29;20489;-90
2023/10/16 08:02:58;;;;;;;4.30;3.25;;;;;;;5.92;100.00;100870.44;4829702;29;20061;-89
2023/10/16 08:05:25;;;;;;;7.03;3.03;;;;;;;5.96;100.00;100874.53;4826114;29;20053;-91
2023/10/16 08:07:53;;;;;;;5.03;2.83;;;;;;;5.97;100.00;100867.50;4854840;29;20086;-92
2023/10/16 08:13:24;;;;;;;3.88;2.40;;;;;;;6.16;100.00;100866.28;4810369;29;20547;-89
2023/10/16 08:15:51;;;;;;;5.20;2.80;;;;;;;6.23;100.00;100867.53;4824049;29;20056;-88
2023/10/16 08:18:18;;;;;;;6.95;2.50;;;;;;;6.30;100.00;100868.81;4825567;29;20041;-89
2023/10/16 08:21:00;;;;;;;5.63;2.67;;;;;;;6.36;100.00;100874.56;4828179;29;20045;-89
2023/10/16 08:23:38;;;;;;;8.50;2.60;;;;;;;6.37;100.00;100868.38;5178206;27;20129;-89
2023/10/16 08:26:28;;;;;;;7.50;2.13;;;;;;;6.44;100.00;100864.38;5112245;27;20417;-89
2023/10/16 08:31:44;;;;;;;6.68;2.08;;;;;;;6.50;100.00;100868.38;5141138;27;20462;-90
2023/10/16 08:34:22;;;;;;;6.63;2.30;;;;;;;6.58;100.00;100866.88;5149593;27;20031;-93
2023/10/16 08:36:51;;;;;;;5.78;1.90;;;;;;;6.61;100.00;100863.19;5136117;27;20038;-93
2023/10/16 08:39:21;;;;;;;7.07;2.25;;;;;;;6.71;100.00;100866.00;5133951;27;20421;-89
2023/10/16 08:42:00;;;;;;;6.78;1.73;;;;;;;6.78;100.00;100866.41;5131742;27;20079;-88
2023/10/16 08:44:28;;;;;;;4.28;2.25;;;;;;;6.96;100.00;100866.88;5168313;27;20018;-90
2023/10/16 08:49:25;;;;;;;7.22;1.65;;;;;;;7.32;100.00;100865.19;5133331;27;20133;-90
2023/10/16 08:52:04;;;;;;;2.20;0.98;;;;;;;7.48;100.00;100861.41;5116721;27;20101;-89
2023/10/16 08:54:53;;;;;;;2.78;1.00;;;;;;;7.60;100.00;100866.72;5106729;27;20082;-89
2023/10/16 08:57:19;;;;;;;4.00;1.35;;;;;;;7.76;100.00;100869.88;5110773;27;20079;-89
2023/10/16 08:59:52;;;;;;;8.18;1.30;;;;;;;7.90;100.00;100870.63;5146860;27;20426;-89
2023/10/16 09:02:24;;;;;;;6.43;1.20;;;;;;;7.99;100.00;100869.09;5132926;27;20080;-89
2023/10/16 09:04:54;;;;;;;6.20;1.40;;;;;;;7.98;100.00;100864.78;5127670;27;20034;-89
2023/10/16 09:07:20;;;;;;;4.63;1.52;;;;;;;7.96;100.00;100857.00;5133821;27;20075;-89
2023/10/16 09:09:49;;;;;;;2.60;1.10;;;;;;;7.96;100.00;100848.25;5132099;27;20035;-89
2023/10/16 09:12:44;;;;;;;6.15;1.67;;;;;;;7.99;100.00;100850.66;5130861;27;20091;-89
2023/10/16 09:15:06;;;;;;;5.93;1.40;;;;;;;8.00;100.00;100850.53;5149910;27;20130;-89
2023/10/16 09:17:35;;;;;;;3.17;1.30;;;;;;;8.04;100.00;100845.88;5134681;27;20026;-89
2023/10/16 09:20:13;;;;;;;5.75;1.58;;;;;;;8.05;100.00;100848.41;5130129;27;20023;-90
2023/10/16 09:22:45;;;;;;;4.70;1.38;;;;;;;8.05;100.00;100848.41;5145952;27;20038;-89
2023/10/16 09:25:15;;;;;;;3.75;1.02;;;;;;;8.10;100.00;100844.56;5112151;27;20035;-89
2023/10/16 09:27:49;;;;;;;3.25;1.20;;;;;;;8.19;100.00;100846.47;5110640;27;20030;-89
2023/10/16 09:30:15;;;;;;;6.63;1.50;;;;;;;8.18;100.00;100845.66;5130817;27;20065;-89
2023/10/16 09:32:41;;;;;;;5.00;1.05;;;;;;;8.26;100.00;100846.84;5113429;27;20062;-89
2023/10/16 09:35:12;;;;;;;8.48;1.10;;;;;;;8.38;100.00;100851.16;5100942;27;20045;-89
2023/10/16 09:37:47;;;;;;;4.40;1.10;;;;;;;8.56;100.00;100853.34;5100577;27;20129;-88
2023/10/16 09:40:19;;;;;;;4.33;1.43;;;;;;;8.64;100.00;100840.41;5137730;27;20065;-90
2023/10/16 09:43:08;;;;;;;6.85;1.60;;;;;;;8.80;100.00;100844.44;5100950;27;20125;-89
2023/10/16 09:45:36;;;;;;;6.47;1.88;;;;;;;8.95;100.00;100849.47;5129359;27;20038;-89
2023/10/16 09:48:07;;;;;;;2.50;0.90;;;;;;;9.11;100.00;100851.69;5108185;27;20119;-93
2023/10/16 09:50:37;;;;;;;5.88;0.68;;;;;;;9.21;100.00;100847.34;5103362;27;20042;-90
2023/10/16 09:53:09;;;;;;;7.90;1.92;;;;;;;9.35;100.00;100851.47;5097614;27;20019;-92
2023/10/16 09:55:38;;;;;;;3.92;0.77;;;;;;;9.34;100.00;100843.69;5106484;27;20034;-91
2023/10/16 09:58:06;;;;;;;5.70;0.75;;;;;;;9.34;100.00;100849.81;5098445;27;20470;-93
2023/10/16 10:00:32;;;;;;;4.95;0.75;;;;;;;9.41;100.00;100852.78;5107290;27;20113;-92
2023/10/16 10:03:12;;;;;;;3.55;0.80;;;;;;;9.49;100.00;100849.50;5106382;27;20042;-91
2023/10/16 10:08:27;;;;;;;6.00;0.70;;;;;;;9.74;100.00;100847.44;5132324;27;20031;-93
2023/10/16 10:11:26;;;;;;;2.05;0.60;;;;;;;9.80;100.00;100845.16;5102886;27;20035;-93
2023/10/16 10:14:09;;;;;;;2.63;0.88;;;;;;;9.80;100.00;100847.78;5104159;27;20023;-93
2023/10/16 10:16:45;;;;;;;5.55;1.05;;;;;;;9.87;100.00;100848.09;5121568;27;20469;-90
2023/10/16 10:19:46;;;;;;;1.33;0.70;;;;;;;9.93;100.00;100847.59;5101429;27;20058;-93
2023/10/16 10:22:22;;;;;;;4.43;0.60;;;;;;;9.98;100.00;100838.44;5127662;27;20474;-93
2023/10/16 10:25:08;;;;;;;3.03;0.73;;;;;;;9.99;100.00;100840.94;5120373;27;20022;-94
2023/10/16 10:27:41;;;;;;;3.15;0.65;;;;;;;10.05;100.00;100840.41;5106638;27;20119;-93
2023/10/16 10:30:17;;;;;;;2.50;0.60;;;;;;;10.16;100.00;100839.50;5103885;27;20491;-92
2023/10/16 10:32:53;;;;;;;3.05;0.70;;;;;;;10.21;100.00;100839.09;5102886;27;20030;-93
2023/10/16 10:35:28;;;;;;;3.70;0.80;;;;;;;10.35;100.00;100834.44;5100408;27;20035;-91
2023/10/16 10:38:29;;;;;;;4.20;0.52;;;;;;;10.47;100.00;100832.53;5101780;27;20038;-93
2023/10/16 10:41:04;;;;;;;4.85;0.73;;;;;;;10.55;100.00;100838.00;5115537;27;20475;-92
2023/10/16 10:43:49;;;;;;;5.63;0.68;;;;;;;10.65;100.00;100840.69;5109898;27;20038;-92
2023/10/16 10:46:20;;;;;;;3.05;0.70;;;;;;;10.76;100.00;100837.09;5129485;27;20023;-91
2023/10/16 10:48:46;;;;;;;5.50;0.77;;;;;;;10.68;100.00;100832.47;5116629;27;20041;-93
2023/10/16 10:51:15;;;;;;;2.90;0.70;;;;;;;10.67;100.00;100834.28;5119828;27;20030;-92
2023/10/16 10:53:58;;;;;;;2.50;0.60;;;;;;;10.76;100.00;100830.00;5101829;27;20042;-92
2023/10/16 10:56:51;;;;;;;3.00;0.70;;;;;;;10.72;100.00;100830.41;5103055;27;20494;-92
2023/10/16 10:59:39;;;;;;;2.40;0.70;;;;;;;10.73;100.00;100834.72;5100152;27;20035;-91
2023/10/16 11:04:58;;;;;;;3.72;0.77;;;;;;;10.76;100.00;100827.34;5063435;27;20498;-91
2023/10/16 11:07:45;;;;;;;2.92;0.70;;;;;;;10.97;100.00;100831.72;5112321;27;20474;-92
2023/10/16 11:10:15;;;;;;;6.88;1.00;;;;;;;11.01;100.00;100832.25;5102254;27;20026;-91
2023/10/16 11:12:44;;;;;;;3.03;0.63;;;;;;;10.96;100.00;100826.56;5113876;27;20031;-92
2023/10/16 11:15:11;;;;;;;6.47;0.55;;;;;;;11.04;100.00;100824.88;5101465;27;20027;-92
2023/10/16 11:17:40;;;;;;;1.55;0.47;;;;;;;11.02;100.00;100828.66;5115536;27;20031;-90
2023/10/16 11:22:45;;;;;;;3.55;0.70;;;;;;;11.11;100.00;100821.69;5135076;27;20494;-92
2023/10/16 11:25:13;;;;;;;5.60;0.60;;;;;;;11.11;100.00;100829.63;5110387;27;20031;-92
2023/10/16 11:27:42;;;;;;;4.68;0.73;;;;;;;11.13;100.00;100827.69;5108423;27;20031;-91
2023/10/16 11:30:18;;;;;;;3.38;0.68;;;;;;;11.23;100.00;100828.50;5088332;27;20041;-90
2023/10/16 11:32:48;;;;;;;3.70;0.65;;;;;;;11.21;100.00;100826.97;5116224;27;20037;-92
2023/10/16 11:35:17;;;;;;;8.50;0.70;;;;;;;11.19;100.00;100813.91;5135304;27;20030;-89
2023/10/16 11:37:44;;;;;;;3.45;0.50;;;;;;;11.34;100.00;100813.47;5111805;27;20031;-91
2023/10/16 11:40:19;;;;;;;2.45;0.70;;;;;;;11.49;100.00;100809.41;5100132;27;20091;-92
2023/10/16 11:42:46;;;;;;;3.97;0.82;;;;;;;11.56;100.00;100806.19;5091668;27;20394;-79
2023/10/16 11:45:18;;;;;;;2.15;0.70;;;;;;;11.60;100.00;100804.94;5115160;27;20031;-90
2023/10/16 11:47:44;;;;;;;7.10;0.70;;;;;;;11.64;100.00;100790.44;5099029;27;20043;-91
2023/10/16 11:50:17;;;;;;;2.97;0.63;;;;;;;11.68;100.00;100783.88;5112262;27;20122;-92
2023/10/16 11:52:43;;;;;;;3.67;0.80;;;;;;;11.75;100.00;100784.16;5096387;27;20043;-92
2023/10/16 11:55:09;;;;;;;5.00;0.70;;;;;;;11.75;100.00;100784.16;5097551;27;20042;-89
2023/10/16 11:57:34;;;;;;;4.97;0.57;;;;;;;11.71;100.00;100780.94;5110793;27;20047;-90
2023/10/16 12:00:15;;;;;;;4.30;0.60;;;;;;;11.77;100.00;100769.78;5087485;27;20125;-92
2023/10/16 12:02:46;;;;;;;6.22;0.60;;;;;;;11.76;100.00;100772.56;5111112;27;20378;-92
2023/10/16 12:05:12;;;;;;;7.13;0.93;;;;;;;11.91;100.00;100775.59;5105737;27;20492;-93
2023/10/16 12:07:43;;;;;;;2.33;0.68;;;;;;;12.02;100.00;100774.56;5131485;27;20034;-93
2023/10/16 12:10:15;;;;;;;4.32;0.52;;;;;;;12.00;100.00;100774.72;5110234;27;20042;-90
2023/10/16 12:12:41;;;;;;;5.43;0.82;;;;;;;11.99;100.00;100777.53;5118512;27;20062;-93
2023/10/16 12:15:10;;;;;;;3.35;0.80;;;;;;;12.04;100.00;100772.59;5097379;27;20475;-92
2023/10/16 12:17:36;;;;;;;3.15;0.60;;;;;;;12.09;100.00;100766.91;5108213;28;20046;-91
2023/10/16 12:20:10;;;;;;;3.65;0.60;;;;;;;12.10;100.00;100757.97;5112907;27;20082;-93
2023/10/16 12:22:39;;;;;;;2.75;1.00;;;;;;;12.12;100.00;100753.38;5095928;28;20088;-93
2023/10/16 12:25:10;;;;;;;4.30;0.57;;;;;;;12.18;100.00;100751.94;5098436;27;20129;-92
2023/10/16 12:27:39;;;;;;;4.40;0.75;;;;;;;12.01;100.00;100744.59;5117197;27;20438;-93
2023/10/16 12:30:07;;;;;;;4.75;0.60;;;;;;;12.03;100.00;100747.94;5115282;28;20043;-93
2023/10/16 12:32:33;;;;;;;4.85;0.68;;;;;;;11.95;100.00;100749.63;5097952;27;20031;-92
2023/10/16 12:35:00;;;;;;;3.10;0.57;;;;;;;11.87;100.00;100747.72;5109408;27;20039;-93
2023/10/16 12:37:27;;;;;;;5.03;1.17;;;;;;;11.87;100.00;100743.25;5100446;27;20058;-92
2023/10/16 12:39:55;;;;;;;6.03;0.70;;;;;;;11.95;100.00;100739.88;5132836;27;20022;-92
2023/10/16 12:42:21;;;;;;;3.92;1.20;;;;;;;11.95;100.00;100739.88;5117089;27;20365;-93
2023/10/16 12:44:47;;;;;;;3.97;0.80;;;;;;;11.88;100.00;100738.81;5115887;27;20035;-94
2023/10/16 12:47:13;;;;;;;8.93;1.02;;;;;;;11.93;100.00;100733.88;5117704;27;20538;-90
2023/10/16 12:49:39;;;;;;;2.85;0.73;;;;;;;11.94;100.00;100729.44;5112713;27;20030;-91
2023/10/16 12:52:07;;;;;;;4.82;0.90;;;;;;;11.87;100.00;100729.16;5117424;27;20053;-93
2023/10/16 12:54:33;;;;;;;3.70;0.73;;;;;;;11.89;100.00;100727.22;5117155;27;20039;-92
2023/10/16 12:56:59;;;;;;;1.98;0.68;;;;;;;12.00;100.00;100723.53;5095611;28;20087;-92
2023/10/16 12:59:28;;;;;;;6.05;0.82;;;;;;;11.88;100.00;100720.25;5103638;27;20034;-94
2023/10/16 13:01:54;;;;;;;3.00;0.60;;;;;;;11.78;100.00;100722.94;5111105;27;20116;-91
2023/10/16 13:04:19;;;;;;;1.25;0.60;;;;;;;11.66;100.00;100715.19;5103845;27;20054;-91
2023/10/16 13:06:45;;;;;;;6.30;0.90;;;;;;;11.74;100.00;100725.03;5120599;27;20039;-92
2023/10/16 13:09:16;;;;;;;3.35;0.80;;;;;;;11.83;100.00;100728.66;5100177;27;20063;-91
2023/10/16 13:11:42;;;;;;;5.50;0.80;;;;;;;11.69;100.00;100729.94;5104508;27;20027;-90
2023/10/16 13:14:11;;;;;;;3.25;0.90;;;;;;;11.70;100.00;100721.03;5144972;27;20042;-93
2023/10/16 13:16:41;;;;;;;6.55;0.85;;;;;;;11.76;100.00;100723.09;5124413;27;20031;-95
2023/10/16 13:19:10;;;;;;;2.78;0.65;;;;;;;11.75;100.00;100702.88;5123097;27;20030;-93
2023/10/16 13:21:41;;;;;;;1.83;0.60;;;;;;;11.71;100.00;100712.09;5103760;27;20065;-94
2023/10/16 13:24:16;;;;;;;2.75;0.45;;;;;;;11.60;100.00;100709.63;5099625;27;20035;-94
2023/10/16 13:26:42;;;;;;;3.70;0.80;;;;;;;11.38;100.00;100704.53;5091225;27;20057;-92
2023/10/16 13:29:10;;;;;;;5.97;0.77;;;;;;;11.33;100.00;100685.59;5106293;27;20061;-92
2023/10/16 13:31:40;;;;;;;6.32;1.02;;;;;;;11.25;100.00;100694.25;5104234;27;20030;-92
2023/10/16 13:34:11;;;;;;;4.00;0.60;;;;;;;11.22;100.00;100683.97;5117729;27;20042;-94
2023/10/16 13:36:37;;;;;;;4.47;0.73;;;;;;;11.34;100.00;100681.97;5100458;27;20187;-92